Time;durP1;ratioP1;P1;durP2;ratioP2;P2;SDS_P1;SDS_P2;PMS_P1;PMS_P2;Temp;Humidity;BMP_temperature;BMP_pressure;BME280_temperature;BME280_humidity;BME280_pressure;Samples;Min_cycle;Max_cycle;Signal;HPM_P1;HPM_P2
2021/04/13 00:00:05;;;;;;;0.20;0.10;;;;;;;;;;5094357;28;20471;-16
2021/04/13 00:02:37;;;;;;;0.00;0.00;;;;;;;;;;5094206;28;20027;-17
2021/04/13 00:05:10;;;;;;;0.10;0.10;;;;;;;;;;5094230;28;20028;-17
2021/04/13 00:07:37;;;;;;;0.40;0.10;;;;;;;;;;5094359;28;20035;-16
2021/04/13 00:10:07;;;;;;;0.22;0.17;;;;;;;;;;5093170;28;20077;-16
2021/04/13 00:12:33;;;;;;;0.00;0.00;;;;;;;;;;5094346;28;20440;-16
2021/04/13 00:15:07;;;;;;;0.17;0.10;;;;;;;;;;5093936;28;20027;-16
2021/04/13 00:17:33;;;;;;;0.00;0.00;;;;;;;;;;5094270;28;20028;-16
2021/04/13 00:20:14;;;;;;;0.00;0.00;;;;;;;;;;5094243;28;20570;-16
2021/04/13 00:22:41;;;;;;;0.38;0.10;;;;;;;;;;5093197;28;20429;-16
2021/04/13 00:25:07;;;;;;;0.00;0.00;;;;;;;;;;5094222;28;20020;-16
2021/04/13 00:27:32;;;;;;;0.00;0.00;;;;;;;;;;5093982;28;20064;-16
2021/04/13 00:30:06;;;;;;;0.00;0.00;;;;;;;;;;5093929;28;20063;-16
2021/04/13 00:32:33;;;;;;;0.32;0.15;;;;;;;;;;5092036;28;20026;-17
2021/04/13 00:37:43;;;;;;;0.13;0.13;;;;;;;;;;5093828;28;20115;-16
2021/04/13 00:40:14;;;;;;;0.15;0.15;;;;;;;;;;5093846;28;20066;-16
2021/04/13 00:42:39;;;;;;;0.10;0.05;;;;;;;;;;5092096;28;20035;-16
2021/04/13 00:45:14;;;;;;;0.65;0.10;;;;;;;;;;5092063;28;20024;-16
2021/04/13 00:47:41;;;;;;;0.55;0.10;;;;;;;;;;5093610;28;20038;-17
2021/04/13 00:50:11;;;;;;;0.20;0.10;;;;;;;;;;5091941;28;20101;-17
2021/04/13 00:52:39;;;;;;;0.00;0.00;;;;;;;;;;5093325;28;20028;-17
2021/04/13 00:55:10;;;;;;;0.22;0.10;;;;;;;;;;5093336;28;20097;-16
2021/04/13 00:57:39;;;;;;;0.00;0.00;;;;;;;;;;5093403;28;20467;-16
2021/04/13 01:00:05;;;;;;;0.00;0.00;;;;;;;;;;5093281;28;20107;-17
2021/04/13 01:02:31;;;;;;;0.13;0.10;;;;;;;;;;5093282;28;20028;-17
2021/04/13 01:05:01;;;;;;;0.10;0.05;;;;;;;;;;5093061;28;20032;-16
2021/04/13 01:07:34;;;;;;;0.52;0.00;;;;;;;;;;5093250;28;20039;-17
2021/04/13 01:10:20;;;;;;;0.10;0.10;;;;;;;;;;5092892;28;20036;-17
2021/04/13 01:12:51;;;;;;;0.20;0.10;;;;;;;;;;5081889;28;20478;-16
2021/04/13 01:15:16;;;;;;;0.00;0.00;;;;;;;;;;5093251;28;20032;-16
2021/04/13 01:17:43;;;;;;;0.10;0.10;;;;;;;;;;5092786;28;20366;-17
2021/04/13 01:20:13;;;;;;;0.10;0.00;;;;;;;;;;5092817;28;20036;-16
2021/04/13 01:25:28;;;;;;;0.00;0.00;;;;;;;;;;5092763;28;20039;-17
2021/04/13 01:27:53;;;;;;;;;;;;;;;;;;5093128;28;20036;-17
2021/04/13 01:30:20;;;;;;;0.00;0.00;;;;;;;;;;5092595;28;19923;-17
2021/04/13 01:32:46;;;;;;;0.00;0.00;;;;;;;;;;5092539;28;20371;-16
2021/04/13 01:35:14;;;;;;;0.00;0.00;;;;;;;;;;5092226;28;20050;-17
2021/04/13 01:38:26;;;;;;;0.10;0.10;;;;;;;;;;5092867;28;20039;-16
2021/04/13 01:43:10;;;;;;;0.03;0.03;;;;;;;;;;5092822;28;20031;-17
2021/04/13 01:45:37;;;;;;;0.08;0.08;;;;;;;;;;5092485;28;20024;-17
2021/04/13 01:48:03;;;;;;;0.10;0.10;;;;;;;;;;5092695;28;20028;-17
2021/04/13 01:50:34;;;;;;;0.00;0.00;;;;;;;;;;5092382;28;20035;-18
2021/04/13 01:53:16;;;;;;;0.63;0.10;;;;;;;;;;5092505;28;20048;-16
2021/04/13 01:55:57;;;;;;;0.05;0.05;;;;;;;;;;5092542;28;20429;-16
2021/04/13 01:58:26;;;;;;;0.00;0.00;;;;;;;;;;5091502;28;20020;-16
2021/04/13 02:00:54;;;;;;;0.03;0.03;;;;;;;;;;5092460;28;20016;-16
2021/04/13 02:03:38;;;;;;;0.03;0.03;;;;;;;;;;5092378;28;20029;-16
2021/04/13 02:06:10;;;;;;;0.00;0.00;;;;;;;;;;5092393;28;20031;-16
2021/04/13 02:08:41;;;;;;;1.35;0.10;;;;;;;;;;5092079;28;20470;-17
2021/04/13 02:11:12;;;;;;;0.00;0.00;;;;;;;;;;5092234;28;20497;-16
2021/04/13 02:13:46;;;;;;;0.00;0.00;;;;;;;;;;5092178;28;20052;-17
2021/04/13 02:16:15;;;;;;;0.00;0.00;;;;;;;;;;5092173;28;20081;-17
2021/04/13 02:18:45;;;;;;;0.00;0.00;;;;;;;;;;5090883;28;20374;-17
2021/04/13 02:21:15;;;;;;;0.75;0.10;;;;;;;;;;5092221;28;20077;-17
2021/04/13 02:23:43;;;;;;;0.00;0.00;;;;;;;;;;5091860;28;20080;-16
2021/04/13 02:26:09;;;;;;;0.00;0.00;;;;;;;;;;5092554;28;20035;-17
2021/04/13 02:28:35;;;;;;;0.00;0.00;;;;;;;;;;5092108;28;20406;-17
2021/04/13 02:31:05;;;;;;;0.00;0.00;;;;;;;;;;5091933;28;20036;-16
2021/04/13 02:33:38;;;;;;;0.10;0.10;;;;;;;;;;5091899;28;20035;-16
2021/04/13 02:36:26;;;;;;;0.00;0.00;;;;;;;;;;5091950;28;20486;-17
2021/04/13 02:38:53;;;;;;;0.05;0.00;;;;;;;;;;5083896;28;20122;-16
2021/04/13 02:41:41;;;;;;;0.00;0.00;;;;;;;;;;5092018;28;20016;-17
2021/04/13 02:44:07;;;;;;;0.00;0.00;;;;;;;;;;5091799;28;20036;-17
2021/04/13 02:46:34;;;;;;;1.55;0.00;;;;;;;;;;5094686;28;20066;-16
2021/04/13 02:49:02;;;;;;;0.10;0.10;;;;;;;;;;5094963;28;20066;-17
2021/04/13 02:51:29;;;;;;;0.00;0.00;;;;;;;;;;5095461;28;20024;-17
2021/04/13 02:53:56;;;;;;;0.00;0.00;;;;;;;;;;5095871;28;20048;-17
2021/04/13 02:56:31;;;;;;;0.03;0.03;;;;;;;;;;5095587;28;20458;-17
2021/04/13 02:59:12;;;;;;;0.13;0.10;;;;;;;;;;5095851;28;20432;-17
2021/04/13 03:01:53;;;;;;;0.00;0.00;;;;;;;;;;5095496;28;20040;-17
2021/04/13 03:04:18;;;;;;;0.00;0.00;;;;;;;;;;5095700;28;20020;-18
2021/04/13 03:06:45;;;;;;;0.00;0.00;;;;;;;;;;5095576;28;20374;-17
2021/04/13 03:09:11;;;;;;;0.00;0.00;;;;;;;;;;5095250;28;20035;-17
2021/04/13 03:11:44;;;;;;;0.00;0.00;;;;;;;;;;5093950;28;20028;-17
2021/04/13 03:14:09;;;;;;;0.03;0.03;;;;;;;;;;5093948;28;20028;-17
2021/04/13 03:16:36;;;;;;;0.00;0.00;;;;;;;;;;5095117;28;20028;-17
2021/04/13 03:19:04;;;;;;;0.00;0.00;;;;;;;;;;5093869;28;20057;-17
2021/04/13 03:21:32;;;;;;;0.20;0.00;;;;;;;;;;5095136;28;20478;-18
2021/04/13 03:24:00;;;;;;;0.00;0.00;;;;;;;;;;5094901;28;20055;-18
2021/04/13 03:26:27;;;;;;;0.10;0.10;;;;;;;;;;5095277;28;20386;-17
2021/04/13 03:28:55;;;;;;;0.00;0.00;;;;;;;;;;5095297;28;20016;-17
2021/04/13 03:31:22;;;;;;;0.10;0.10;;;;;;;;;;5093613;28;20023;-17
2021/04/13 03:33:48;;;;;;;0.00;0.00;;;;;;;;;;5093528;28;20052;-17
2021/04/13 03:36:19;;;;;;;0.10;0.10;;;;;;;;;;5093549;28;20103;-18
2021/04/13 03:38:51;;;;;;;0.00;0.00;;;;;;;;;;5095044;28;20020;-23
2021/04/13 03:41:18;;;;;;;0.00;0.00;;;;;;;;;;5094982;28;20112;-17
2021/04/13 03:43:45;;;;;;;0.00;0.00;;;;;;;;;;5094626;28;20319;-17
2021/04/13 03:46:11;;;;;;;0.10;0.10;;;;;;;;;;5094655;28;20024;-17
2021/04/13 03:48:38;;;;;;;0.00;0.00;;;;;;;;;;5094808;28;20062;-18
2021/04/13 03:51:06;;;;;;;0.00;0.00;;;;;;;;;;5094583;28;20046;-17
2021/04/13 03:53:34;;;;;;;0.00;0.00;;;;;;;;;;5094427;28;20027;-17
2021/04/13 03:56:20;;;;;;;0.00;0.00;;;;;;;;;;5094398;28;20032;-17
2021/04/13 03:58:47;;;;;;;0.00;0.00;;;;;;;;;;5093195;28;20547;-17
2021/04/13 04:01:14;;;;;;;0.55;0.05;;;;;;;;;;5094383;28;20473;-18
2021/04/13 04:03:44;;;;;;;0.00;0.00;;;;;;;;;;5094166;28;20074;-17
2021/04/13 04:06:12;;;;;;;0.00;0.00;;;;;;;;;;5094307;28;20153;-17
2021/04/13 04:08:50;;;;;;;0.00;0.00;;;;;;;;;;5093998;28;20032;-18
2021/04/13 04:11:15;;;;;;;0.00;0.00;;;;;;;;;;5094172;28;20036;-17
2021/04/13 04:13:49;;;;;;;0.08;0.08;;;;;;;;;;5094255;28;20023;-17
2021/04/13 04:16:19;;;;;;;0.00;0.00;;;;;;;;;;5094242;28;20028;-17
2021/04/13 04:18:46;;;;;;;0.00;0.00;;;;;;;;;;5092628;28;20031;-18
2021/04/13 04:21:15;;;;;;;0.30;0.10;;;;;;;;;;5092709;28;20039;-17
2021/04/13 04:23:41;;;;;;;0.00;0.00;;;;;;;;;;5093581;28;20040;-17
2021/04/13 04:26:07;;;;;;;0.10;0.10;;;;;;;;;;5092775;28;20483;-17
2021/04/13 04:28:32;;;;;;;0.60;0.32;;;;;;;;;;5094011;28;20081;-17
2021/04/13 04:31:34;;;;;;;0.10;0.10;;;;;;;;;;5093918;28;20394;-17
2021/04/13 04:34:00;;;;;;;0.00;0.00;;;;;;;;;;5093934;28;20028;-18
2021/04/13 04:36:30;;;;;;;0.00;0.00;;;;;;;;;;5094012;28;20020;-17
2021/04/13 04:38:56;;;;;;;0.00;0.00;;;;;;;;;;5092347;28;20070;-17
2021/04/13 04:41:34;;;;;;;0.00;0.00;;;;;;;;;;5093723;28;20059;-17
2021/04/13 04:44:02;;;;;;;0.10;0.10;;;;;;;;;;5093726;28;20118;-18
2021/04/13 04:46:30;;;;;;;0.82;0.20;;;;;;;;;;5093604;28;20066;-17
2021/04/13 04:49:03;;;;;;;0.10;0.10;;;;;;;;;;5093547;28;20425;-17
2021/04/13 04:51:29;;;;;;;0.00;0.00;;;;;;;;;;5093162;28;20044;-17
2021/04/13 04:53:54;;;;;;;0.00;0.00;;;;;;;;;;5093670;28;20447;-18
2021/04/13 04:56:20;;;;;;;1.17;0.10;;;;;;;;;;5093202;28;20042;-17
2021/04/13 04:58:45;;;;;;;3.47;0.17;;;;;;;;;;5093447;28;20374;-17
2021/04/13 05:01:10;;;;;;;0.10;0.10;;;;;;;;;;5093321;28;20059;-17
2021/04/13 05:03:36;;;;;;;0.10;0.10;;;;;;;;;;5093325;28;20027;-17
2021/04/13 05:06:02;;;;;;;0.00;0.00;;;;;;;;;;5093080;28;20372;-17
2021/04/13 05:08:27;;;;;;;1.85;0.10;;;;;;;;;;5092006;28;20020;-17
2021/04/13 05:10:53;;;;;;;0.05;0.05;;;;;;;;;;5093235;28;20429;-17
2021/04/13 05:13:19;;;;;;;0.03;0.03;;;;;;;;;;5092908;28;20021;-18
2021/04/13 05:15:45;;;;;;;0.00;0.00;;;;;;;;;;5091686;28;20036;-17
2021/04/13 05:18:10;;;;;;;0.08;0.08;;;;;;;;;;5093281;28;20020;-17
2021/04/13 05:20:36;;;;;;;0.35;0.10;;;;;;;;;;5093044;28;20394;-17
2021/04/13 05:23:01;;;;;;;0.10;0.10;;;;;;;;;;5092384;28;20512;-18
2021/04/13 05:25:27;;;;;;;0.10;0.10;;;;;;;;;;5093076;28;20101;-17
2021/04/13 05:27:52;;;;;;;0.10;0.10;;;;;;;;;;5091391;28;20016;-17
2021/04/13 05:30:19;;;;;;;0.13;0.13;;;;;;;;;;5092643;28;20078;-17
2021/04/13 05:32:45;;;;;;;0.03;0.03;;;;;;;;;;5090578;28;20030;-17
2021/04/13 05:35:11;;;;;;;0.08;0.08;;;;;;;;;;5092884;28;20028;-17
2021/04/13 05:37:36;;;;;;;0.00;0.00;;;;;;;;;;5092608;28;20060;-17
2021/04/13 05:40:07;;;;;;;0.38;0.10;;;;;;;;;;5092561;28;20040;-18
2021/04/13 05:42:33;;;;;;;0.00;0.00;;;;;;;;;;5092408;28;20517;-17
2021/04/13 05:44:59;;;;;;;0.15;0.10;;;;;;;;;;5092922;28;20363;-17
2021/04/13 05:47:26;;;;;;;0.00;0.00;;;;;;;;;;5092556;28;20020;-17
2021/04/13 05:49:51;;;;;;;0.00;0.00;;;;;;;;;;5090923;28;20036;-17
2021/04/13 05:52:17;;;;;;;0.00;0.00;;;;;;;;;;5092742;28;20020;-16
2021/04/13 05:54:42;;;;;;;0.10;0.10;;;;;;;;;;5091126;28;20036;-16
2021/04/13 05:57:12;;;;;;;0.10;0.10;;;;;;;;;;5092693;28;20088;-16
2021/04/13 05:59:38;;;;;;;0.00;0.00;;;;;;;;;;5092655;28;20028;-17
2021/04/13 06:02:04;;;;;;;0.10;0.10;;;;;;;;;;5092918;28;20023;-17
2021/04/13 06:04:29;;;;;;;0.10;0.10;;;;;;;;;;5092536;28;20036;-17
2021/04/13 06:06:55;;;;;;;0.10;0.10;;;;;;;;;;5092247;28;20023;-16
2021/04/13 06:09:21;;;;;;;0.10;0.10;;;;;;;;;;5092174;28;20083;-16
2021/04/13 06:11:46;;;;;;;0.10;0.10;;;;;;;;;;5092189;28;20443;-16
2021/04/13 06:14:12;;;;;;;0.10;0.10;;;;;;;;;;5092233;28;20028;-15
2021/04/13 06:16:39;;;;;;;0.10;0.10;;;;;;;;;;5092193;28;20482;-15
2021/04/13 06:19:05;;;;;;;0.32;0.10;;;;;;;;;;5090994;28;20062;-15
2021/04/13 06:21:31;;;;;;;0.10;0.10;;;;;;;;;;5095164;28;20065;-15
2021/04/13 06:23:56;;;;;;;0.20;0.10;;;;;;;;;;5096005;28;20048;-16
2021/04/13 06:26:23;;;;;;;0.08;0.05;;;;;;;;;;5096141;28;20028;-15
2021/04/13 06:28:48;;;;;;;0.03;0.03;;;;;;;;;;5096124;28;20023;-15
2021/04/13 06:31:13;;;;;;;1.10;0.10;;;;;;;;;;5096009;28;20032;-16
2021/04/13 06:33:39;;;;;;;0.00;0.00;;;;;;;;;;5096020;28;20047;-17
2021/04/13 06:36:05;;;;;;;0.40;0.20;;;;;;;;;;5096044;28;20375;-16
2021/04/13 06:38:31;;;;;;;0.20;0.10;;;;;;;;;;5094640;28;20059;-15
2021/04/13 06:41:15;;;;;;;0.00;0.00;;;;;;;;;;5096029;28;20104;-15
2021/04/13 06:43:40;;;;;;;0.10;0.10;;;;;;;;;;5095765;28;20032;-16
2021/04/13 06:46:13;;;;;;;0.00;0.00;;;;;;;;;;5096033;28;20142;-17
2021/04/13 06:48:38;;;;;;;;;;;;;;;;;;5094831;28;20551;-16
2021/04/13 06:51:12;;;;;;;0.55;0.10;;;;;;;;;;5095672;28;19912;-16
2021/04/13 06:53:47;;;;;;;0.15;0.10;;;;;;;;;;5095594;28;20031;-16
2021/04/13 06:56:13;;;;;;;0.13;0.10;;;;;;;;;;5095712;28;20040;-16
2021/04/13 06:58:38;;;;;;;0.30;0.10;;;;;;;;;;5094264;28;20023;-16
2021/04/13 07:01:10;;;;;;;0.10;0.10;;;;;;;;;;5095528;28;20031;-16
2021/04/13 07:03:53;;;;;;;0.10;0.10;;;;;;;;;;5095413;28;20056;-16
2021/04/13 07:06:38;;;;;;;0.20;0.20;;;;;;;;;;5095470;28;20017;-16
2021/04/13 07:09:08;;;;;;;0.10;0.10;;;;;;;;;;5095188;28;20517;-17
2021/04/13 07:11:44;;;;;;;0.00;0.00;;;;;;;;;;5095236;28;20024;-16
2021/04/13 07:14:21;;;;;;;0.10;0.10;;;;;;;;;;5095214;28;20623;-17
2021/04/13 07:16:51;;;;;;;0.00;0.00;;;;;;;;;;5095409;28;20028;-16
2021/04/13 07:19:18;;;;;;;0.10;0.10;;;;;;;;;;5095216;28;20532;-16
2021/04/13 07:21:48;;;;;;;1.67;0.10;;;;;;;;;;5094926;28;20020;-17
2021/04/13 07:24:13;;;;;;;0.00;0.00;;;;;;;;;;5095157;28;20036;-17
2021/04/13 07:26:43;;;;;;;0.05;0.05;;;;;;;;;;5095292;28;20038;-16
2021/04/13 07:29:26;;;;;;;1.08;0.10;;;;;;;;;;5095200;28;20099;-16
2021/04/13 07:31:58;;;;;;;0.10;0.10;;;;;;;;;;5093704;28;20136;-16
2021/04/13 07:34:24;;;;;;;2.42;1.08;;;;;;;;;;5094823;28;20585;-16
2021/04/13 07:36:58;;;;;;;0.32;0.20;;;;;;;;;;5095054;28;20035;-16
2021/04/13 07:39:25;;;;;;;0.10;0.10;;;;;;;;;;5095113;28;20352;-16
2021/04/13 07:41:52;;;;;;;0.20;0.13;;;;;;;;;;5094741;28;20016;-16
2021/04/13 07:44:20;;;;;;;0.10;0.10;;;;;;;;;;5094871;28;20424;-16
2021/04/13 07:47:00;;;;;;;0.10;0.10;;;;;;;;;;5094848;28;20157;-16
2021/04/13 07:49:31;;;;;;;0.10;0.10;;;;;;;;;;5094794;28;20423;-16
2021/04/13 07:51:59;;;;;;;1.27;0.10;;;;;;;;;;5094743;28;20039;-16
2021/04/13 07:54:27;;;;;;;0.40;0.10;;;;;;;;;;5094542;28;20041;-16
2021/04/13 07:56:56;;;;;;;0.10;0.10;;;;;;;;;;5094357;28;20028;-15
2021/04/13 07:59:24;;;;;;;0.13;0.10;;;;;;;;;;5094657;28;20024;-16
2021/04/13 08:01:50;;;;;;;0.10;0.10;;;;;;;;;;5094295;28;20039;-16
2021/04/13 08:04:17;;;;;;;0.13;0.13;;;;;;;;;;5094596;28;20016;-16
2021/04/13 08:06:47;;;;;;;0.13;0.05;;;;;;;;;;5094214;28;20020;-16
2021/04/13 08:09:15;;;;;;;0.10;0.10;;;;;;;;;;5094501;28;20077;-16
2021/04/13 08:11:59;;;;;;;0.10;0.10;;;;;;;;;;5093903;28;20060;-16
2021/04/13 08:14:30;;;;;;;0.10;0.10;;;;;;;;;;5094063;28;20036;-17
2021/04/13 08:17:03;;;;;;;0.10;0.10;;;;;;;;;;5094089;28;20026;-16
2021/04/13 08:19:33;;;;;;;0.10;0.10;;;;;;;;;;5092752;28;20209;-16
2021/04/13 08:22:19;;;;;;;0.20;0.20;;;;;;;;;;5093757;28;20544;-16
2021/04/13 08:24:50;;;;;;;0.45;0.10;;;;;;;;;;5093639;28;20669;-17
2021/04/13 08:27:18;;;;;;;0.10;0.10;;;;;;;;;;5092566;28;20082;-17
2021/04/13 08:29:57;;;;;;;0.10;0.10;;;;;;;;;;5093514;28;20029;-16
2021/04/13 08:32:50;;;;;;;0.20;0.20;;;;;;;;;;4736983;28;10000344;-18
2021/04/13 08:35:30;;;;;;;0.40;0.25;;;;;;;;;;5089057;28;20059;-18
2021/04/13 08:37:59;;;;;;;0.20;0.20;;;;;;;;;;5090326;28;20501;-19
2021/04/13 08:40:34;;;;;;;0.20;0.20;;;;;;;;;;5090711;28;20054;-18
2021/04/13 08:43:00;;;;;;;0.20;0.20;;;;;;;;;;5089872;28;20047;-18
2021/04/13 08:45:41;;;;;;;0.40;0.40;;;;;;;;;;5090000;28;20405;-19
2021/04/13 08:48:07;;;;;;;1.40;0.10;;;;;;;;;;5090210;28;20063;-17
2021/04/13 08:50:41;;;;;;;0.32;0.20;;;;;;;;;;5089917;28;20551;-18
2021/04/13 08:53:06;;;;;;;0.10;0.10;;;;;;;;;;5089940;28;20032;-17
2021/04/13 08:55:35;;;;;;;0.13;0.13;;;;;;;;;;5089838;28;20031;-18
2021/04/13 08:58:03;;;;;;;0.20;0.20;;;;;;;;;;5089626;28;20032;-17
2021/04/13 09:00:44;;;;;;;0.10;0.10;;;;;;;;;;5089964;28;20517;-17
2021/04/13 09:03:11;;;;;;;0.17;0.10;;;;;;;;;;5090013;28;20048;-18
2021/04/13 09:05:38;;;;;;;0.20;0.13;;;;;;;;;;5090138;28;20024;-16
2021/04/13 09:08:04;;;;;;;0.30;0.20;;;;;;;;;;5089532;28;20063;-15
2021/04/13 09:10:33;;;;;;;0.25;0.20;;;;;;;;;;5089965;28;20071;-16
2021/04/13 09:13:22;;;;;;;0.10;0.10;;;;;;;;;;5089686;28;20374;-15
2021/04/13 09:15:51;;;;;;;0.10;0.10;;;;;;;;;;5086188;28;20040;-16
2021/04/13 09:18:25;;;;;;;0.10;0.10;;;;;;;;;;5089622;28;20020;-16
2021/04/13 09:21:17;;;;;;;0.17;0.17;;;;;;;;;;5089066;28;20039;-16
2021/04/13 09:23:45;;;;;;;0.10;0.10;;;;;;;;;;5080666;28;20398;-16
2021/04/13 09:26:19;;;;;;;0.15;0.15;;;;;;;;;;5089731;28;20036;-17
2021/04/13 09:28:49;;;;;;;1.23;0.20;;;;;;;;;;5088893;28;20170;-16
2021/04/13 09:31:18;;;;;;;0.20;0.20;;;;;;;;;;5089094;28;20059;-17
2021/04/13 09:33:44;;;;;;;0.30;0.20;;;;;;;;;;5088831;28;20031;-16
2021/04/13 09:36:22;;;;;;;0.10;0.10;;;;;;;;;;5088966;28;20115;-17
2021/04/13 09:39:09;;;;;;;0.10;0.10;;;;;;;;;;5088983;28;20038;-16
2021/04/13 09:41:49;;;;;;;0.22;0.22;;;;;;;;;;5089108;28;20031;-17
2021/04/13 09:44:15;;;;;;;0.43;0.20;;;;;;;;;;5087294;28;20099;-17
2021/04/13 09:47:03;;;;;;;0.10;0.10;;;;;;;;;;5089359;28;20118;-17
2021/04/13 09:50:01;;;;;;;0.10;0.10;;;;;;;;;;5088973;28;20038;-16
2021/04/13 09:52:38;;;;;;;0.10;0.10;;;;;;;;;;5048494;28;20663;-17
2021/04/13 09:55:10;;;;;;;2.92;0.20;;;;;;;;;;5087836;28;20051;-17
2021/04/13 09:57:54;;;;;;;1.65;0.10;;;;;;;;;;5088451;28;20054;-17
2021/04/13 10:00:31;;;;;;;0.38;0.20;;;;;;;;;;5088195;28;20039;-17
2021/04/13 10:03:15;;;;;;;0.38;0.20;;;;;;;;;;5088786;28;20546;-17
2021/04/13 10:05:45;;;;;;;0.25;0.20;;;;;;;;;;5088730;28;20032;-17
2021/04/13 10:08:15;;;;;;;0.30;0.10;;;;;;;;;;5088697;28;20032;-17
2021/04/13 10:10:55;;;;;;;0.10;0.10;;;;;;;;;;5088881;28;20040;-17
2021/04/13 10:13:21;;;;;;;0.95;0.10;;;;;;;;;;5089217;28;20066;-17
2021/04/13 10:15:52;;;;;;;0.25;0.20;;;;;;;;;;5087343;28;20477;-17
2021/04/13 10:18:18;;;;;;;0.10;0.10;;;;;;;;;;5088726;28;20082;-17
2021/04/13 10:20:43;;;;;;;0.57;0.28;;;;;;;;;;5088063;28;20024;-16
2021/04/13 10:23:26;;;;;;;0.10;0.10;;;;;;;;;;5088665;28;20499;-17
2021/04/13 10:25:58;;;;;;;0.15;0.10;;;;;;;;;;5088830;28;20063;-18
2021/04/13 10:28:26;;;;;;;0.20;0.20;;;;;;;;;;5089198;28;20032;-17
2021/04/13 10:31:01;;;;;;;0.70;0.30;;;;;;;;;;5088568;28;20413;-17
2021/04/13 10:33:45;;;;;;;0.15;0.13;;;;;;;;;;5088654;28;20039;-17
2021/04/13 10:36:10;;;;;;;0.25;0.17;;;;;;;;;;5088760;28;20478;-18
2021/04/13 10:38:42;;;;;;;0.38;0.20;;;;;;;;;;5088601;28;20043;-17
2021/04/13 10:41:29;;;;;;;0.50;0.50;;;;;;;;;;5087083;28;20191;-17
2021/04/13 10:44:07;;;;;;;0.25;0.20;;;;;;;;;;5088331;28;20047;-17
2021/04/13 10:46:39;;;;;;;0.20;0.20;;;;;;;;;;5088752;28;20402;-17
2021/04/13 10:49:36;;;;;;;0.30;0.30;;;;;;;;;;5088729;28;20036;-15
2021/04/13 10:52:14;;;;;;;0.35;0.20;;;;;;;;;;5086926;28;20434;-16
2021/04/13 10:54:41;;;;;;;0.30;0.30;;;;;;;;;;5088599;28;20115;-16
2021/04/13 10:57:25;;;;;;;0.63;0.52;;;;;;;;;;5088507;28;20075;-15
2021/04/13 11:00:15;;;;;;;0.10;0.10;;;;;;;;;;5088338;28;20036;-15
2021/04/13 11:02:50;;;;;;;0.20;0.20;;;;;;;;;;5086909;28;20029;-16
2021/04/13 11:05:34;;;;;;;0.10;0.10;;;;;;;;;;5088606;28;20039;-15
2021/04/13 11:08:11;;;;;;;0.10;0.10;;;;;;;;;;5091065;28;20055;-16
2021/04/13 11:10:56;;;;;;;0.65;0.30;;;;;;;;;;5091922;28;20518;-16
2021/04/13 11:13:40;;;;;;;0.25;0.10;;;;;;;;;;5090880;28;20063;-16
2021/04/13 11:16:24;;;;;;;0.20;0.20;;;;;;;;;;5092052;28;20060;-15
2021/04/13 11:18:50;;;;;;;1.77;0.20;;;;;;;;;;5091736;28;20496;-16
2021/04/13 11:21:27;;;;;;;0.20;0.20;;;;;;;;;;5090379;28;20095;-16
2021/04/13 11:24:02;;;;;;;0.35;0.20;;;;;;;;;;5091325;28;20045;-16
2021/04/13 11:26:27;;;;;;;0.43;0.20;;;;;;;;;;5091537;28;20105;-15
2021/04/13 11:29:12;;;;;;;0.43;0.22;;;;;;;;;;5091595;28;20051;-16
2021/04/13 11:31:43;;;;;;;0.20;0.20;;;;;;;;;;5091105;28;20032;-16
2021/04/13 11:34:21;;;;;;;0.52;0.28;;;;;;;;;;5091103;28;20493;-16
2021/04/13 11:36:46;;;;;;;0.82;0.40;;;;;;;;;;5091339;28;20383;-16
2021/04/13 11:39:20;;;;;;;0.20;0.20;;;;;;;;;;5091519;28;20039;-16
2021/04/13 11:41:55;;;;;;;0.10;0.10;;;;;;;;;;5089842;28;20403;-15
2021/04/13 11:44:40;;;;;;;1.10;0.10;;;;;;;;;;5091062;28;20363;-16
2021/04/13 11:47:17;;;;;;;0.40;0.30;;;;;;;;;;5091544;28;20420;-16
2021/04/13 11:50:07;;;;;;;0.63;0.20;;;;;;;;;;5091060;28;20032;-16
2021/04/13 11:52:35;;;;;;;0.50;0.20;;;;;;;;;;5091322;28;20066;-16
2021/04/13 11:55:01;;;;;;;1.35;0.30;;;;;;;;;;5091261;28;20026;-16
2021/04/13 11:57:30;;;;;;;0.20;0.20;;;;;;;;;;5091092;28;20024;-16
2021/04/13 12:00:18;;;;;;;2.97;0.20;;;;;;;;;;5090809;28;20055;-17
2021/04/13 12:02:44;;;;;;;0.30;0.30;;;;;;;;;;5090721;28;20470;-16
2021/04/13 12:05:37;;;;;;;0.20;0.20;;;;;;;;;;5091447;28;20042;-17
2021/04/13 12:08:04;;;;;;;0.35;0.30;;;;;;;;;;5090175;28;20542;-16
2021/04/13 12:10:29;;;;;;;1.00;0.30;;;;;;;;;;5090250;28;20047;-16
2021/04/13 12:12:55;;;;;;;0.22;0.20;;;;;;;;;;5090246;28;20024;-16
2021/04/13 12:15:20;;;;;;;0.20;0.20;;;;;;;;;;5090604;28;20470;-16
2021/04/13 12:17:53;;;;;;;1.00;0.22;;;;;;;;;;5090289;28;20026;-16
2021/04/13 12:20:29;;;;;;;0.77;0.20;;;;;;;;;;5090216;28;20035;-16
2021/04/13 12:23:02;;;;;;;0.75;0.28;;;;;;;;;;5090422;28;20044;-15
2021/04/13 12:25:27;;;;;;;;;;;;;;;;;;5091218;28;20028;-16
2021/04/13 12:28:01;;;;;;;0.28;0.17;;;;;;;;;;5090618;28;19904;-16
2021/04/13 12:30:29;;;;;;;0.20;0.20;;;;;;;;;;5090280;28;20040;-16
2021/04/13 12:32:56;;;;;;;0.10;0.10;;;;;;;;;;5081352;28;20049;-15
2021/04/13 12:35:40;;;;;;;0.20;0.20;;;;;;;;;;5089452;28;20386;-16
2021/04/13 12:38:25;;;;;;;0.30;0.30;;;;;;;;;;5089825;28;20093;-16
2021/04/13 12:41:09;;;;;;;0.40;0.25;;;;;;;;;;5089973;28;20131;-16
2021/04/13 12:43:41;;;;;;;0.77;0.10;;;;;;;;;;5089255;28;20066;-16
2021/04/13 12:46:25;;;;;;;0.30;0.30;;;;;;;;;;5089855;28;20024;-16
2021/04/13 12:48:52;;;;;;;0.30;0.20;;;;;;;;;;5088281;28;20030;-17
2021/04/13 12:51:23;;;;;;;0.13;0.13;;;;;;;;;;5089905;28;20036;-16
2021/04/13 12:53:49;;;;;;;0.15;0.15;;;;;;;;;;5089751;28;20028;-16
2021/04/13 12:56:26;;;;;;;0.20;0.20;;;;;;;;;;5089517;28;20370;-16
2021/04/13 12:58:51;;;;;;;0.40;0.30;;;;;;;;;;5088808;28;20462;-16
2021/04/13 13:01:19;;;;;;;0.20;0.20;;;;;;;;;;5089808;28;20081;-16
2021/04/13 13:03:45;;;;;;;0.20;0.20;;;;;;;;;;5088450;28;20031;-16
2021/04/13 13:06:15;;;;;;;0.30;0.20;;;;;;;;;;5089326;28;20436;-16
2021/04/13 13:08:40;;;;;;;3.80;0.30;;;;;;;;;;5089314;28;20028;-16
2021/04/13 13:11:07;;;;;;;0.40;0.30;;;;;;;;;;5089428;28;20495;-16
2021/04/13 13:13:35;;;;;;;0.32;0.28;;;;;;;;;;5089721;28;20028;-16
2021/04/13 13:16:10;;;;;;;0.10;0.10;;;;;;;;;;5089580;28;20020;-16
2021/04/13 13:18:36;;;;;;;0.22;0.20;;;;;;;;;;5089303;28;20039;-18
2021/04/13 13:21:13;;;;;;;0.35;0.10;;;;;;;;;;5087505;28;20024;-17
2021/04/13 13:23:40;;;;;;;0.35;0.30;;;;;;;;;;5088845;28;20197;-16
2021/04/13 13:26:13;;;;;;;0.30;0.30;;;;;;;;;;5089142;28;20024;-16
2021/04/13 13:28:42;;;;;;;7.65;0.60;;;;;;;;;;5088945;28;20058;-16
2021/04/13 13:31:08;;;;;;;8.05;2.45;;;;;;;;;;5087586;28;20036;-16
2021/04/13 13:33:34;;;;;;;0.68;0.50;;;;;;;;;;5089050;28;20494;-17
2021/04/13 13:36:00;;;;;;;0.25;0.25;;;;;;;;;;5088929;28;20020;-16
2021/04/13 13:38:26;;;;;;;0.35;0.20;;;;;;;;;;5089140;28;20502;-16
2021/04/13 13:40:52;;;;;;;0.65;0.50;;;;;;;;;;5088933;28;20012;-16
2021/04/13 13:43:23;;;;;;;0.38;0.35;;;;;;;;;;5088944;28;20524;-16
2021/04/13 13:45:48;;;;;;;0.50;0.32;;;;;;;;;;5088600;28;20039;-18
2021/04/13 13:48:18;;;;;;;1.13;0.60;;;;;;;;;;5088748;28;20023;-18
2021/04/13 13:50:44;;;;;;;2.63;0.68;;;;;;;;;;5088694;28;20520;-16
2021/04/13 13:53:17;;;;;;;0.50;0.50;;;;;;;;;;5088845;28;20111;-16
2021/04/13 13:55:53;;;;;;;0.80;0.70;;;;;;;;;;5087043;28;20036;-16
2021/04/13 13:58:18;;;;;;;1.05;0.60;;;;;;;;;;5089049;28;20026;-18
2021/04/13 14:00:48;;;;;;;1.50;0.70;;;;;;;;;;5087420;28;20028;-16
2021/04/13 14:03:37;;;;;;;1.73;0.95;;;;;;;;;;5089075;28;20269;-18
2021/04/13 14:06:06;;;;;;;0.80;0.80;;;;;;;;;;5074088;28;20399;-18
2021/04/13 14:08:37;;;;;;;1.60;0.95;;;;;;;;;;5088054;28;20065;-18
2021/04/13 14:11:11;;;;;;;1.50;1.20;;;;;;;;;;5088632;28;20036;-17
2021/04/13 14:13:40;;;;;;;0.82;0.65;;;;;;;;;;5088640;28;20543;-17
2021/04/13 14:16:26;;;;;;;3.90;1.92;;;;;;;;;;5088338;28;20032;-17
2021/04/13 14:18:53;;;;;;;2.67;0.95;;;;;;;;;;5087836;28;20140;-17
2021/04/13 14:21:20;;;;;;;2.15;1.38;;;;;;;;;;5088152;28;20250;-18
2021/04/13 14:23:50;;;;;;;1.55;1.08;;;;;;;;;;5086928;28;20044;-18
2021/04/13 14:26:18;;;;;;;1.88;1.20;;;;;;;;;;5088322;28;20119;-17
2021/04/13 14:28:44;;;;;;;2.08;1.15;;;;;;;;;;5088267;28;20023;-17
2021/04/13 14:31:14;;;;;;;2.22;1.10;;;;;;;;;;5088402;28;20379;-17
2021/04/13 14:33:40;;;;;;;1.92;1.33;;;;;;;;;;5088047;28;20028;-17
2021/04/13 14:36:06;;;;;;;1.50;1.40;;;;;;;;;;5088316;28;20051;-17
2021/04/13 14:38:32;;;;;;;3.75;1.67;;;;;;;;;;5088749;28;20478;-17
2021/04/13 14:40:57;;;;;;;0.88;0.77;;;;;;;;;;5088515;28;20390;-17
2021/04/13 14:43:23;;;;;;;0.60;0.45;;;;;;;;;;5092611;28;20047;-17
2021/04/13 14:45:48;;;;;;;2.38;0.85;;;;;;;;;;5091809;28;20036;-17
2021/04/13 14:48:16;;;;;;;3.33;0.77;;;;;;;;;;5092058;28;20058;-17
2021/04/13 14:50:44;;;;;;;2.17;1.70;;;;;;;;;;5092008;28;20043;-17
2021/04/13 14:53:10;;;;;;;1.08;0.93;;;;;;;;;;5092545;28;20136;-16
2021/04/13 14:55:36;;;;;;;3.47;0.80;;;;;;;;;;5091126;28;20024;-16
2021/04/13 14:58:03;;;;;;;3.15;1.75;;;;;;;;;;5091801;28;20026;-16
2021/04/13 15:00:29;;;;;;;1.58;1.10;;;;;;;;;;5091867;28;20470;-26
2021/04/13 15:02:55;;;;;;;2.00;1.40;;;;;;;;;;5091507;28;20028;-17
2021/04/13 15:05:20;;;;;;;2.22;1.15;;;;;;;;;;5092105;28;20020;-16
2021/04/13 15:07:47;;;;;;;1.73;0.98;;;;;;;;;;5091820;28;20386;-16
2021/04/13 15:10:14;;;;;;;4.70;1.58;;;;;;;;;;5092139;28;20459;-16
2021/04/13 15:12:39;;;;;;;1.80;1.40;;;;;;;;;;5092164;28;20032;-16